Time;durP1;ratioP1;P1;durP2;ratioP2;P2;SDS_P1;SDS_P2;PMS_P1;PMS_P2;Temp;Humidity;BMP_temperature;BMP_pressure;BME280_temperature;BME280_humidity;BME280_pressure;Samples;Min_cycle;Max_cycle;Signal;HPM_P1;HPM_P2
2023/12/16 00:00:59;;;;;;;;;0.00;0.00;;;;;12.43;100.00;103922.28;5056475;28;71188;-81
2023/12/16 00:03:24;;;;;;;;;0.00;0.00;;;;;12.44;100.00;103925.75;5075532;28;45364;-81
2023/12/16 00:05:49;;;;;;;;;0.00;0.00;;;;;12.47;100.00;103920.56;5075166;28;45329;-80
2023/12/16 00:08:15;;;;;;;;;0.00;0.00;;;;;12.46;100.00;103918.81;5075479;28;47307;-80
2023/12/16 00:10:40;;;;;;;;;0.00;0.00;;;;;12.40;100.00;103917.84;5057328;28;45396;-81
2023/12/16 00:13:05;;;;;;;;;0.00;0.00;;;;;12.39;100.00;103915.25;5074295;28;66139;-81
2023/12/16 00:15:31;;;;;;;;;0.00;0.00;;;;;12.40;100.00;103917.00;5076877;28;45427;-81
2023/12/16 00:17:56;;;;;;;;;0.00;0.00;;;;;12.38;100.00;103918.69;5059467;27;75337;-81
2023/12/16 00:20:22;;;;;;;;;0.00;0.00;;;;;12.35;100.00;103910.81;5078612;28;46061;-80
2023/12/16 00:22:47;;;;;;;;;0.00;0.00;;;;;12.28;100.00;103912.47;5078672;28;45387;-81
2023/12/16 00:25:12;;;;;;;;;0.00;0.00;;;;;12.25;100.00;103911.56;5042995;28;72477;-81
2023/12/16 00:27:38;;;;;;;;;0.00;0.00;;;;;12.19;100.00;103897.53;5060620;28;45479;-81
2023/12/16 00:30:05;;;;;;;;;0.00;0.00;;;;;12.18;100.00;103905.34;5078901;28;45313;-81
2023/12/16 00:32:31;;;;;;;;;0.00;0.00;;;;;12.07;100.00;103909.53;5043596;28;45420;-81
2023/12/16 00:34:56;;;;;;;;;0.00;0.00;;;;;12.03;100.00;103916.44;5078275;28;45434;-81
2023/12/16 00:37:21;;;;;;;;;0.00;0.00;;;;;11.97;100.00;103913.75;5060546;28;46124;-80
2023/12/16 00:39:47;;;;;;;;;0.00;0.00;;;;;11.91;100.00;103922.34;5077658;28;68574;-79
2023/12/16 00:42:12;;;;;;;;;12.00;12.00;;;;;11.87;100.00;103922.22;5042187;28;68992;-81
2023/12/16 00:44:37;;;;;;;;;0.00;0.00;;;;;11.88;100.00;103922.25;5077455;28;70388;-81
2023/12/16 00:47:03;;;;;;;;;0.00;0.00;;;;;11.83;100.00;103918.72;5077416;28;75089;-81
2023/12/16 00:49:28;;;;;;;;;0.00;0.00;;;;;11.84;100.00;103912.63;5059793;28;45687;-81
2023/12/16 00:51:57;;;;;;;;;0.00;0.00;;;;;11.87;100.00;103920.50;5060211;28;45711;-81
2023/12/16 00:54:23;;;;;;;;;0.00;0.00;;;;;11.81;100.00;103926.50;5078240;28;48646;-82
2023/12/16 00:56:49;;;;;;;;;0.00;0.00;;;;;11.85;100.00;103926.53;5060121;28;45875;-81
2023/12/16 00:59:15;;;;;;;;;0.00;0.00;;;;;11.79;100.00;103919.50;5078339;28;46016;-81
2023/12/16 01:01:41;;;;;;;;;0.00;0.00;;;;;11.85;100.00;103919.63;5078142;28;45321;-81
2023/12/16 01:04:06;;;;;;;;;0.00;0.00;;;;;11.86;100.00;103926.56;5072608;28;45446;-81
2023/12/16 01:06:31;;;;;;;;;0.00;0.00;;;;;11.84;100.00;103920.44;5056417;28;54670;-81
2023/12/16 01:08:57;;;;;;;;;0.00;0.00;;;;;11.81;100.00;103912.56;5039802;28;45749;-81
2023/12/16 01:11:22;;;;;;;;;0.00;0.00;;;;;11.79;100.00;103915.16;5050185;28;68775;-81
2023/12/16 01:13:47;;;;;;;;;0.00;0.00;;;;;11.82;100.00;103915.19;5056611;28;66162;-81
2023/12/16 01:16:13;;;;;;;;;0.00;0.00;;;;;11.78;100.00;103916.00;5056808;28;69804;-80
2023/12/16 01:18:38;;;;;;;;;0.00;0.00;;;;;11.79;100.00;103909.94;5057194;28;46026;-81
2023/12/16 01:21:08;;;;;;;;;0.00;0.00;;;;;11.77;100.00;103910.75;5044256;28;69206;-80
2023/12/16 01:23:34;;;;;;;;;0.00;0.00;;;;;11.76;100.00;103911.63;5077967;28;45423;-80
2023/12/16 01:25:59;;;;;;;;;0.00;0.00;;;;;11.71;100.00;103908.06;5077596;28;45411;-80
2023/12/16 01:28:24;;;;;;;;;0.00;0.00;;;;;11.71;100.00;103914.16;5059382;28;52319;-81
2023/12/16 01:30:51;;;;;;;;;0.00;0.00;;;;;11.73;100.00;103906.34;5058645;28;67282;-80
2023/12/16 01:33:16;;;;;;;;;0.00;0.00;;;;;11.71;100.00;103914.16;5077490;28;45246;-81
2023/12/16 01:35:41;;;;;;;;;0.00;0.00;;;;;11.69;100.00;103915.00;5042814;28;48150;-81
2023/12/16 01:38:07;;;;;;;;;0.00;0.00;;;;;11.59;100.00;103912.22;5076984;28;64650;-81
2023/12/16 01:40:32;;;;;;;;;0.00;0.00;;;;;11.61;100.00;103909.63;5077354;28;45364;-80
2023/12/16 01:42:57;;;;;;;;;0.00;0.00;;;;;11.54;100.00;103915.59;5077650;28;45438;-81
2023/12/16 01:45:23;;;;;;;;;0.00;0.00;;;;;11.53;100.00;103919.03;5076522;28;73387;-80
2023/12/16 01:47:49;;;;;;;;;0.00;0.00;;;;;11.46;100.00;103912.84;5059027;28;45392;-81
2023/12/16 01:50:14;;;;;;;;;0.00;0.00;;;;;11.37;100.00;103915.28;5059345;28;45297;-80
2023/12/16 01:52:41;;;;;;;;;0.00;0.00;;;;;11.33;100.00;103921.28;5077132;28;53479;-80
2023/12/16 01:55:07;;;;;;;;;0.00;0.00;;;;;11.26;100.00;103920.31;5059844;28;46552;-80
2023/12/16 01:57:33;;;;;;;;;0.00;0.00;;;;;11.18;100.00;103933.19;5058429;28;45813;-80
2023/12/16 01:59:59;;;;;;;;;0.00;0.00;;;;;11.16;100.00;103934.91;5058587;28;45529;-81
2023/12/16 02:02:24;;;;;;;;;0.00;0.00;;;;;11.14;100.00;103933.97;5057748;28;63438;-80
2023/12/16 02:04:51;;;;;;;;;0.00;0.00;;;;;11.06;100.00;103932.94;5053648;28;47088;-81
2023/12/16 02:07:16;;;;;;;;;0.00;0.00;;;;;11.00;100.00;103933.69;5076426;28;70773;-81
2023/12/16 02:09:42;;;;;;;;;0.00;0.00;;;;;10.96;100.00;103944.03;5076713;28;67829;-81
2023/12/16 02:12:07;;;;;;;;;3.00;3.00;;;;;10.91;100.00;103936.13;5058866;28;45416;-81
2023/12/16 02:14:32;;;;;;;;;0.00;0.00;;;;;10.85;100.00;103941.22;5076201;28;74605;-81
2023/12/16 02:16:58;;;;;;;;;0.00;0.00;;;;;10.75;100.00;103931.44;5075910;28;66340;-81
2023/12/16 02:19:27;;;;;;;;;0.00;0.00;;;;;10.68;100.00;103927.81;5058885;28;45421;-81
2023/12/16 02:21:53;;;;;;;;;0.00;0.00;;;;;10.69;100.00;103919.16;5058767;28;45397;-81
2023/12/16 02:24:19;;;;;;;;;0.00;0.00;;;;;10.60;100.00;103919.81;5058758;28;46136;-81
2023/12/16 02:26:45;;;;;;;;;0.00;0.00;;;;;10.58;100.00;103918.91;5058633;28;45347;-81
2023/12/16 02:29:10;;;;;;;;;0.00;0.00;;;;;10.59;100.00;103918.06;5058773;28;45393;-81
2023/12/16 02:31:35;;;;;;;;;0.00;0.00;;;;;10.55;100.00;103920.56;5057249;28;68074;-81
2023/12/16 02:34:01;;;;;;;;;0.00;0.00;;;;;10.49;100.00;103918.69;5058096;28;70114;-81
2023/12/16 02:36:26;;;;;;;;;0.00;0.00;;;;;10.40;100.00;103923.69;5075988;28;63819;-80
2023/12/16 02:38:51;;;;;;;;;0.00;0.00;;;;;10.39;100.00;103921.97;5075969;28;45329;-81
2023/12/16 02:41:17;;;;;;;;;0.33;0.33;;;;;10.33;100.00;103929.66;5076367;28;47964;-81
2023/12/16 02:43:42;;;;;;;;;0.00;0.00;;;;;10.31;100.00;103921.78;5076042;28;52742;-81
2023/12/16 02:46:09;;;;;;;;;0.75;0.75;;;;;10.27;100.00;103928.63;5076174;28;45423;-82
2023/12/16 02:48:34;;;;;;;;;0.00;0.00;;;;;10.22;100.00;103930.22;5076811;28;45397;-81
2023/12/16 02:50:59;;;;;;;;;0.00;0.00;;;;;10.17;100.00;103937.03;5057128;28;70244;-81
2023/12/16 02:53:25;;;;;;;;;0.00;0.00;;;;;10.16;100.00;103947.41;5057049;28;74136;-81
2023/12/16 02:55:51;;;;;;;;;0.00;0.00;;;;;10.15;100.00;103937.84;5058089;28;45337;-81
2023/12/16 02:58:16;;;;;;;;;6.00;6.00;;;;;10.07;100.00;103942.88;5058380;28;45453;-81
2023/12/16 03:00:41;;;;;;;;;0.00;0.00;;;;;10.07;100.00;103942.88;5075781;28;45290;-81
2023/12/16 03:03:07;;;;;;;;;0.00;0.00;;;;;10.11;100.00;103943.84;5039978;28;75796;-80
2023/12/16 03:05:32;;;;;;;;;0.00;0.00;;;;;10.07;100.00;103940.28;5058224;28;45304;-81
2023/12/16 03:07:57;;;;;;;;;0.00;0.00;;;;;10.06;100.00;103946.31;5075965;27;56534;-81
2023/12/16 03:10:22;;;;;;;;;0.00;0.00;;;;;10.07;100.00;103946.34;5075199;28;69913;-81
2023/12/16 03:12:48;;;;;;;;;0.00;0.00;;;;;10.06;100.00;103947.19;5057149;28;73672;-81
2023/12/16 03:15:13;;;;;;;;;0.00;0.00;;;;;10.09;100.00;103946.41;5075018;28;63599;-81
2023/12/16 03:17:38;;;;;;;;;0.00;0.00;;;;;10.14;100.00;103946.50;5058289;28;45475;-81
2023/12/16 03:20:05;;;;;;;;;0.00;0.00;;;;;10.22;100.00;103935.44;5057674;28;45432;-81
2023/12/16 03:22:31;;;;;;;;;0.00;0.00;;;;;10.28;100.00;103953.78;5057549;28;45522;-81
2023/12/16 03:24:56;;;;;;;;;3.00;3.00;;;;;10.38;100.00;103949.75;5075618;28;56199;-81
2023/12/16 03:27:21;;;;;;;;;0.00;0.00;;;;;10.50;100.00;103954.34;5076108;28;45445;-81
2023/12/16 03:29:46;;;;;;;;;0.00;0.00;;;;;10.54;100.00;103950.06;5056628;28;69877;-81
2023/12/16 03:32:12;;;;;;;;;0.00;0.00;;;;;10.60;100.00;103951.06;5056481;28;76518;-81
2023/12/16 03:34:37;;;;;;;;;0.00;0.00;;;;;10.65;100.00;103959.00;5057574;28;45401;-81
2023/12/16 03:37:03;;;;;;;;;0.00;0.00;;;;;10.71;100.00;103951.31;5056981;28;67370;-81
2023/12/16 03:39:28;;;;;;;;;0.00;0.00;;;;;10.87;100.00;103949.94;5057814;28;45385;-81
2023/12/16 03:41:54;;;;;;;;;0.00;0.00;;;;;10.95;100.00;103944.88;5057155;28;45401;-82
2023/12/16 03:44:19;;;;;;;;;0.00;0.00;;;;;10.97;100.00;103945.78;5057282;28;45344;-82
2023/12/16 03:46:44;;;;;;;;;0.00;0.00;;;;;11.01;100.00;103942.38;5056887;28;68756;-81
2023/12/16 03:49:10;;;;;;;;;0.00;0.00;;;;;11.02;100.00;103942.44;5057460;28;68840;-81
2023/12/16 03:51:35;;;;;;;;;0.00;0.00;;;;;11.05;100.00;103939.03;5078971;28;47152;-81
2023/12/16 03:54:00;;;;;;;;;0.00;0.00;;;;;11.10;100.00;103945.19;5060258;28;62491;-81
2023/12/16 03:56:26;;;;;;;;;0.00;0.00;;;;;11.17;100.00;103944.47;5079166;28;45347;-81
2023/12/16 03:58:51;;;;;;;;;27.75;18.00;;;;;11.17;100.00;103941.84;5061039;28;45454;-81
2023/12/16 04:01:16;;;;;;;;;0.00;0.00;;;;;11.18;100.00;103935.81;5060712;28;46542;-81
2023/12/16 04:03:42;;;;;;;;;0.00;0.00;;;;;11.17;100.00;103941.84;5059590;28;68394;-81
2023/12/16 04:06:11;;;;;;;;;0.00;0.00;;;;;11.22;100.00;103942.84;5079111;27;45298;-81
2023/12/16 04:08:38;;;;;;;;;0.00;0.00;;;;;11.24;100.00;103948.09;5061208;28;45303;-82
2023/12/16 04:11:03;;;;;;;;;0.00;0.00;;;;;11.28;100.00;103943.81;5078288;27;46400;-82
2023/12/16 04:13:28;;;;;;;;;0.00;0.00;;;;;11.28;100.00;103931.63;5077688;28;68964;-82
2023/12/16 04:15:54;;;;;;;;;0.00;0.00;;;;;11.37;100.00;103928.34;5078002;28;56186;-81
2023/12/16 04:18:19;;;;;;;;;0.00;0.00;;;;;11.42;100.00;103931.88;5078871;28;45234;-81
2023/12/16 04:20:44;;;;;;;;;0.00;0.00;;;;;11.40;100.00;103934.50;5077878;28;75506;-81
2023/12/16 04:23:10;;;;;;;;;0.00;0.00;;;;;11.37;100.00;103934.41;5077718;28;69911;-81
2023/12/16 04:25:35;;;;;;;;;0.00;0.00;;;;;11.43;100.00;103931.06;5077594;28;60567;-82
2023/12/16 04:28:02;;;;;;;;;0.00;0.00;;;;;11.42;100.00;103926.66;5059600;28;68114;-81
2023/12/16 04:30:27;;;;;;;;;0.00;0.00;;;;;11.42;100.00;103924.97;5078112;28;46943;-82
2023/12/16 04:32:52;;;;;;;;;0.00;0.00;;;;;11.46;100.00;103927.59;5077823;28;68246;-81
2023/12/16 04:35:18;;;;;;;;;0.00;0.00;;;;;11.50;100.00;103930.31;5078830;28;45404;-81
2023/12/16 04:37:43;;;;;;;;;0.00;0.00;;;;;11.49;100.00;103928.53;5042909;28;70138;-82
2023/12/16 04:40:09;;;;;;;;;0.00;0.00;;;;;11.45;100.00;103921.53;5076786;28;75568;-81
2023/12/16 04:42:34;;;;;;;;;0.00;0.00;;;;;11.41;100.00;103931.00;5060264;28;45378;-81
2023/12/16 04:44:59;;;;;;;;;0.00;0.00;;;;;11.47;100.00;103929.38;5059489;28;60912;-81
2023/12/16 04:47:24;;;;;;;;;0.00;0.00;;;;;11.41;100.00;103925.78;5059431;28;70383;-82
2023/12/16 04:49:50;;;;;;;;;0.00;0.00;;;;;11.37;100.00;103925.72;5059792;28;47304;-81
2023/12/16 04:52:17;;;;;;;;;0.00;0.00;;;;;11.39;100.00;103930.09;5059274;28;71942;-81
2023/12/16 04:54:43;;;;;;;;;0.00;0.00;;;;;11.42;100.00;103926.66;5078042;28;45460;-81
2023/12/16 04:57:08;;;;;;;;;0.00;0.00;;;;;11.42;100.00;103919.75;5060272;28;45556;-81
2023/12/16 04:59:34;;;;;;;;;0.00;0.00;;;;;11.43;100.00;103924.09;5042918;28;47141;-81
2023/12/16 05:01:59;;;;;;;;;0.00;0.00;;;;;11.41;100.00;103922.31;5041367;28;70748;-81
2023/12/16 05:04:24;;;;;;;;;0.00;0.00;;;;;11.28;100.00;103931.63;5042035;28;68113;-81
2023/12/16 05:06:50;;;;;;;;;0.00;0.00;;;;;11.28;100.00;103926.41;5060278;28;45705;-81
2023/12/16 05:09:15;;;;;;;;;0.00;0.00;;;;;11.35;100.00;103924.81;5076472;28;74666;-81
2023/12/16 05:11:40;;;;;;;;;0.00;0.00;;;;;11.34;100.00;103931.75;5060105;28;45390;-81
2023/12/16 05:14:06;;;;;;;;;0.00;0.00;;;;;11.34;100.00;103925.66;5060319;28;45347;-82
2023/12/16 05:16:31;;;;;;;;;0.33;0.33;;;;;11.21;100.00;103929.75;5059307;28;56228;-81
2023/12/16 05:18:59;;;;;;;;;0.00;0.00;;;;;11.32;100.00;103928.22;5077490;28;46128;-81
2023/12/16 05:21:24;;;;;;;;;0.00;0.00;;;;;11.28;100.00;103926.41;5077227;28;45375;-81
2023/12/16 05:23:50;;;;;;;;;0.00;0.00;;;;;11.31;100.00;103917.75;5058800;28;45470;-81
2023/12/16 05:26:16;;;;;;;;;0.00;0.00;;;;;11.27;100.00;103929.00;5078085;28;45300;-81
2023/12/16 05:28:41;;;;;;;;;0.00;0.00;;;;;11.19;100.00;103928.84;5059741;28;46096;-81
2023/12/16 05:31:06;;;;;;;;;0.00;0.00;;;;;11.04;100.00;103926.81;5058826;28;69441;-82
2023/12/16 05:33:32;;;;;;;;;0.00;0.00;;;;;11.14;100.00;103926.13;5058802;28;67782;-81
2023/12/16 05:35:59;;;;;;;;;0.00;0.00;;;;;11.11;100.00;103927.84;5077096;28;59609;-81
2023/12/16 05:38:24;;;;;;;;;0.00;0.00;;;;;11.07;100.00;103920.78;5059492;28;46092;-82
2023/12/16 05:40:50;;;;;;;;;0.00;0.00;;;;;10.98;100.00;103919.75;5059425;28;45390;-81
2023/12/16 05:43:15;;;;;;;;;0.00;0.00;;;;;10.95;100.00;103922.28;5077620;28;45360;-81
2023/12/16 05:45:40;;;;;;;;;0.00;0.00;;;;;10.98;100.00;103931.91;5058771;28;64780;-81
2023/12/16 05:48:06;;;;;;;;;0.00;0.00;;;;;10.93;100.00;103933.53;5076728;28;69665;-81
2023/12/16 05:50:31;;;;;;;;;0.00;0.00;;;;;10.92;100.00;103931.78;5041451;28;71088;-81
2023/12/16 05:52:56;;;;;;;;;0.00;0.00;;;;;10.85;100.00;103930.78;5076185;28;68189;-81
2023/12/16 05:55:21;;;;;;;;;0.00;0.00;;;;;10.83;100.00;103928.16;5058386;28;70173;-81
2023/12/16 05:57:47;;;;;;;;;0.00;0.00;;;;;10.82;100.00;103935.91;5076669;28;71172;-81
2023/12/16 06:00:12;;;;;;;;;0.00;0.00;;;;;10.77;100.00;103921.91;5058363;28;73205;-81
2023/12/16 06:02:38;;;;;;;;;0.00;0.00;;;;;10.73;100.00;103938.31;5077438;28;45519;-81
2023/12/16 06:05:04;;;;;;;;;0.00;0.00;;;;;10.71;100.00;103940.91;5055527;28;45387;-81
2023/12/16 06:07:30;;;;;;;;;0.00;0.00;;;;;10.68;100.00;103942.56;5056772;28;45482;-81
2023/12/16 06:09:55;;;;;;;;;0.00;0.00;;;;;10.63;100.00;103937.25;5057075;28;45557;-81
2023/12/16 06:12:20;;;;;;;;;0.00;0.00;;;;;10.58;100.00;103937.13;5055496;28;69055;-81
2023/12/16 06:14:46;;;;;;;;;0.00;0.00;;;;;10.53;100.00;103935.28;5071641;28;70662;-81
2023/12/16 06:17:12;;;;;;;;;0.00;0.00;;;;;10.45;100.00;103933.38;5077227;28;46636;-81
2023/12/16 06:19:37;;;;;;;;;0.00;0.00;;;;;10.40;100.00;103934.13;5077206;28;45584;-81
2023/12/16 06:22:02;;;;;;;;;0.00;0.00;;;;;10.36;100.00;103946.19;5076057;28;63494;-81
2023/12/16 06:24:28;;;;;;;;;0.00;0.00;;;;;10.27;100.00;103946.84;5058013;28;45435;-81
2023/12/16 06:26:53;;;;;;;;;0.00;0.00;;;;;10.18;100.00;103938.81;5057559;28;74386;-81
2023/12/16 06:29:18;;;;;;;;;0.00;0.00;;;;;10.17;100.00;103949.19;5058740;28;45513;-81
2023/12/16 06:31:44;;;;;;;;;0.00;0.00;;;;;10.10;100.00;103953.34;5058396;28;59826;-81
2023/12/16 06:34:09;;;;;;;;;0.00;0.00;;;;;10.05;100.00;103945.44;5056639;28;70356;-79
2023/12/16 06:36:34;;;;;;;;;0.00;0.00;;;;;9.97;100.00;103949.56;5066918;28;46496;-81
2023/12/16 06:39:00;;;;;;;;;0.00;0.00;;;;;9.94;100.00;103957.31;5057568;28;67964;-81
2023/12/16 06:41:29;;;;;;;;;0.00;0.00;;;;;9.85;100.00;103955.34;5058114;28;48400;-80
2023/12/16 06:43:54;;;;;;;;;0.00;0.00;;;;;9.85;100.00;103950.13;5072154;28;45457;-80
2023/12/16 06:46:19;;;;;;;;;0.00;0.00;;;;;9.80;100.00;103956.94;5051282;28;70961;-80
2023/12/16 06:48:45;;;;;;;;;0.00;0.00;;;;;9.76;100.00;103957.72;5074848;28;45658;-81
2023/12/16 06:51:10;;;;;;;;;0.00;0.00;;;;;9.71;100.00;103958.44;5067317;28;45424;-82
2023/12/16 06:53:36;;;;;;;;;0.00;0.00;;;;;9.68;100.00;103959.25;5046463;28;69386;-81
2023/12/16 06:56:02;;;;;;;;;0.00;0.00;;;;;9.63;100.00;103966.03;5063355;28;45408;-81
2023/12/16 06:58:27;;;;;;;;;0.00;0.00;;;;;9.60;100.00;103961.66;5070157;28;46457;-81
2023/12/16 07:00:53;;;;;;;;;0.00;0.00;;;;;9.56;100.00;103954.56;5068553;28;45332;-80
2023/12/16 07:03:18;;;;;;;;;0.00;0.00;;;;;9.56;100.00;103959.78;5049201;28;45558;-80
2023/12/16 07:05:43;;;;;;;;;0.00;0.00;;;;;9.53;100.00;103957.13;5038210;28;75810;-81
2023/12/16 07:08:09;;;;;;;;;0.00;0.00;;;;;9.54;100.00;103958.00;5056705;28;73907;-81
2023/12/16 07:10:34;;;;;;;;;0.00;0.00;;;;;9.55;100.00;103963.22;5057540;28;45265;-81
2023/12/16 07:12:59;;;;;;;;;0.00;0.00;;;;;9.54;100.00;103971.88;5056805;28;68748;-81
2023/12/16 07:15:25;;;;;;;;;0.00;0.00;;;;;9.51;100.00;103966.59;5070626;28;45316;-82
2023/12/16 07:17:50;;;;;;;;;0.00;0.00;;;;;9.48;100.00;103971.72;5037491;28;45369;-81
2023/12/16 07:20:15;;;;;;;;;0.00;0.00;;;;;9.49;100.00;103968.28;5019717;28;69257;-80
2023/12/16 07:22:41;;;;;;;;;0.00;0.00;;;;;9.47;100.00;103965.63;5055578;28;48106;-81
2023/12/16 07:25:07;;;;;;;;;0.00;0.00;;;;;9.44;100.00;103965.53;5054601;28;60684;-80
2023/12/16 07:27:32;;;;;;;;;0.00;0.00;;;;;9.43;100.00;103970.69;5060509;28;45470;-80
2023/12/16 07:29:57;;;;;;;;;0.00;0.00;;;;;9.40;100.00;103975.81;5075677;28;58426;-78
2023/12/16 07:32:23;;;;;;;;;0.00;0.00;;;;;9.35;100.00;103973.09;5074941;28;70077;-78
2023/12/16 07:34:49;;;;;;;;;0.00;0.00;;;;;9.36;100.00;103980.06;5074270;28;61199;-78
2023/12/16 07:37:14;;;;;;;;;0.00;0.00;;;;;9.30;100.00;103978.16;5075694;28;45534;-80
2023/12/16 07:39:40;;;;;;;;;0.00;0.00;;;;;9.31;100.00;103984.25;5075188;28;67246;-81
2023/12/16 07:42:05;;;;;;;;;0.00;0.00;;;;;9.24;100.00;103985.78;5075346;28;45451;-83
2023/12/16 07:44:30;;;;;;;;;0.00;0.00;;;;;9.28;100.00;103997.13;5057528;28;45893;-78
2023/12/16 07:46:56;;;;;;;;;0.00;0.00;;;;;9.29;100.00;104010.19;5074878;28;72166;-79
2023/12/16 07:49:25;;;;;;;;;0.00;0.00;;;;;9.28;100.00;104007.53;5074816;28;53041;-78
2023/12/16 07:51:51;;;;;;;;;0.00;0.00;;;;;9.19;100.00;104007.28;5057787;28;45392;-80
2023/12/16 07:54:16;;;;;;;;;0.00;0.00;;;;;9.20;100.00;104006.44;5075509;28;51539;-79
2023/12/16 07:56:41;;;;;;;;;0.00;0.00;;;;;9.21;100.00;104006.50;5074806;28;68820;-79
2023/12/16 07:59:07;;;;;;;;;0.00;0.00;;;;;9.22;100.00;104021.25;5074804;28;69260;-79
2023/12/16 08:01:33;;;;;;;;;0.00;0.00;;;;;9.22;100.00;104018.63;5075686;28;45454;-79
2023/12/16 08:03:58;;;;;;;;;0.00;0.00;;;;;9.23;100.00;104020.41;5052366;28;70292;-79
2023/12/16 08:06:23;;;;;;;;;0.00;0.00;;;;;9.24;100.00;104018.69;5054329;28;73035;-78
2023/12/16 08:08:49;;;;;;;;;8.00;8.00;;;;;9.24;100.00;104026.50;5042734;28;70462;-78
2023/12/16 08:11:14;;;;;;;;;0.00;0.00;;;;;9.29;100.00;104027.50;5056404;28;45447;-78
2023/12/16 08:13:39;;;;;;;;;0.00;0.00;;;;;9.31;100.00;104025.84;5055813;28;77442;-79
2023/12/16 08:16:07;;;;;;;;;0.00;0.00;;;;;9.33;100.00;104028.47;5056041;28;59356;-78
2023/12/16 08:18:32;;;;;;;;;0.00;0.00;;;;;9.35;100.00;104025.09;5074610;28;45399;-79
2023/12/16 08:20:57;;;;;;;;;0.00;0.00;;;;;9.35;100.00;104025.09;5045825;28;64528;-79
2023/12/16 08:23:23;;;;;;;;;0.00;0.00;;;;;9.34;100.00;104031.09;5074832;28;45483;-79
2023/12/16 08:25:48;;;;;;;;;0.00;0.00;;;;;9.35;100.00;104032.88;5074972;28;45774;-78
2023/12/16 08:28:14;;;;;;;;;0.00;0.00;;;;;9.37;100.00;104033.81;5074527;28;50743;-79
2023/12/16 08:30:39;;;;;;;;;0.00;0.00;;;;;9.41;100.00;104033.03;5074746;28;45479;-79
2023/12/16 08:33:05;;;;;;;;;1.50;1.50;;;;;9.46;100.00;104036.66;5073678;28;75551;-78
2023/12/16 08:35:30;;;;;;;;;0.00;0.00;;;;;9.49;100.00;104036.75;5075364;28;45382;-78
2023/12/16 08:37:56;;;;;;;;;0.00;0.00;;;;;9.47;100.00;104035.84;5077499;28;69041;-78
2023/12/16 08:40:25;;;;;;;;;0.00;0.00;;;;;9.54;100.00;104043.81;5078129;28;45532;-78
2023/12/16 08:42:50;;;;;;;;;0.00;0.00;;;;;9.56;100.00;104040.41;5068074;28;46305;-78
2023/12/16 08:45:16;;;;;;;;;0.00;0.00;;;;;9.60;100.00;104039.69;5072844;28;73268;-78
2023/12/16 08:47:41;;;;;;;;;0.00;0.00;;;;;9.65;100.00;104045.00;5058704;28;45831;-84
2023/12/16 08:50:07;;;;;;;;;0.00;0.00;;;;;9.63;100.00;104046.66;5059764;28;59648;-80
2023/12/16 08:52:34;;;;;;;;;0.00;0.00;;;;;9.66;100.00;104058.03;5078143;28;46661;-80
2023/12/16 08:54:59;;;;;;;;;0.00;0.00;;;;;9.67;100.00;104057.19;5078715;28;45459;-80
2023/12/16 08:57:25;;;;;;;;;0.00;0.00;;;;;9.68;100.00;104058.97;5077782;28;45261;-79
2023/12/16 08:59:50;;;;;;;;;0.00;0.00;;;;;9.72;100.00;104065.13;5059720;28;45238;-78
2023/12/16 09:02:15;;;;;;;;;0.00;0.00;;;;;9.69;100.00;104060.75;5077969;28;45688;-79
2023/12/16 09:04:41;;;;;;;;;0.00;0.00;;;;;9.74;100.00;104062.59;5048787;28;73147;-78
2023/12/16 09:07:06;;;;;;;;;0.00;0.00;;;;;9.79;100.00;104063.59;5075006;28;64582;-79
2023/12/16 09:09:32;;;;;;;;;0.00;0.00;;;;;9.80;100.00;104066.22;5077569;28;45463;-78
2023/12/16 09:11:57;;;;;;;;;0.00;0.00;;;;;9.82;100.00;104059.31;5057850;28;73449;-78
2023/12/16 09:14:22;;;;;;;;;0.00;0.00;;;;;9.85;100.00;104063.75;5069374;28;45391;-77
2023/12/16 09:16:48;;;;;;;;;0.00;0.00;;;;;9.89;100.00;104058.66;5071640;28;69129;-79
2023/12/16 09:19:13;;;;;;;;;0.00;0.00;;;;;9.95;100.00;104060.53;5053069;28;60315;-78
2023/12/16 09:21:38;;;;;;;;;0.00;0.00;;;;;9.96;100.00;104054.50;5071920;28;45515;-78
2023/12/16 09:24:05;;;;;;;;;0.00;0.00;;;;;10.01;100.00;104057.22;5058525;28;45351;-79
2023/12/16 09:26:30;;;;;;;;;0.00;0.00;;;;;10.07;100.00;104050.47;5077158;28;45389;-78
2023/12/16 09:28:55;;;;;;;;;0.00;0.00;;;;;10.13;100.00;104044.53;5076254;28;68290;-78
2023/12/16 09:31:21;;;;;;;;;0.00;0.00;;;;;10.17;100.00;104042.91;5076799;28;45510;-78
2023/12/16 09:33:46;;;;;;;;;0.00;0.00;;;;;10.23;100.00;104048.25;5071474;28;45377;-77
2023/12/16 09:36:13;;;;;;;;;0.00;0.00;;;;;10.29;100.00;104056.25;5053400;28;45434;-77
2023/12/16 09:38:39;;;;;;;;;0.00;0.00;;;;;10.38;100.00;104066.94;5057425;28;45447;-78
2023/12/16 09:41:04;;;;;;;;;0.00;0.00;;;;;10.42;100.00;104060.06;5054256;28;45464;-77
2023/12/16 09:43:33;;;;;;;;;0.00;0.00;;;;;10.52;100.00;104064.66;5059110;28;45540;-78
2023/12/16 09:45:58;;;;;;;;;0.00;0.00;;;;;10.56;100.00;104069.09;5074921;28;45439;-77
2023/12/16 09:48:24;;;;;;;;;0.00;0.00;;;;;10.65;100.00;104065.81;5075920;28;70289;-77
2023/12/16 09:50:50;;;;;;;;;0.00;0.00;;;;;10.73;100.00;104066.88;5057356;28;50054;-78
2023/12/16 09:53:15;;;;;;;;;0.00;0.00;;;;;10.82;100.00;104067.09;5065252;28;45381;-77
2023/12/16 09:55:41;;;;;;;;;0.00;0.00;;;;;10.91;100.00;104078.59;5067990;28;45389;-78
2023/12/16 09:58:08;;;;;;;;;0.00;0.00;;;;;10.97;100.00;104068.28;5057026;28;45422;-76
2023/12/16 10:00:35;;;;;;;;;0.00;0.00;;;;;11.06;100.00;104075.44;5054223;28;46588;-78
2023/12/16 10:03:00;;;;;;;;;2.25;2.25;;;;;11.15;100.00;104078.25;5077389;28;45363;-79
2023/12/16 10:05:28;;;;;;;;;0.00;0.00;;;;;11.19;100.00;104072.25;5057831;28;45548;-79
2023/12/16 10:07:57;;;;;;;;;0.00;0.00;;;;;11.29;100.00;104074.25;5076900;28;45514;-79
2023/12/16 10:10:23;;;;;;;;;0.00;0.00;;;;;11.30;100.00;104072.50;5057881;28;47264;-78
2023/12/16 10:12:48;;;;;;;;;0.00;0.00;;;;;11.38;100.00;104070.91;5077255;28;45392;-78
2023/12/16 10:15:28;;;;;;;;;0.00;0.00;;;;;11.49;100.00;104072.03;5076133;28;69170;-78
2023/12/16 10:17:54;;;;;;;;;0.00;0.00;;;;;11.58;100.00;104064.38;5071465;28;45623;-80
2023/12/16 10:20:19;;;;;;;;;0.00;0.00;;;;;11.65;100.00;104059.31;5051929;28;73545;-79
2023/12/16 10:22:44;;;;;;;;;0.00;0.00;;;;;11.71;100.00;104064.63;5076240;28;64614;-80
2023/12/16 10:25:11;;;;;;;;;0.00;0.00;;;;;11.78;100.00;104066.50;5057722;28;67170;-79
2023/12/16 10:27:36;;;;;;;;;0.00;0.00;;;;;11.87;100.00;104065.78;5058912;28;45301;-80
2023/12/16 10:30:03;;;;;;;;;0.00;0.00;;;;;11.95;100.00;104064.25;5076158;28;56346;-80
2023/12/16 10:32:28;;;;;;;;;0.00;0.00;;;;;12.00;100.00;104062.63;5041599;28;47235;-79
2023/12/16 10:34:55;;;;;;;;;0.00;0.00;;;;;12.00;100.00;104054.78;5058935;28;45778;-79
2023/12/16 10:37:21;;;;;;;;;0.00;0.00;;;;;12.26;100.00;104054.34;5076467;28;45503;-79
2023/12/16 10:39:46;;;;;;;;;0.00;0.00;;;;;12.33;100.00;104059.72;5075764;28;75788;-79
2023/12/16 10:42:12;;;;;;;;;0.00;0.00;;;;;12.48;100.00;104059.09;5076548;28;45448;-79
2023/12/16 10:44:37;;;;;;;;;0.00;0.00;;;;;12.65;100.00;104058.44;5076500;28;45538;-78
2023/12/16 10:47:07;;;;;;;;;0.00;0.00;;;;;12.86;100.00;104055.28;5076175;28;58181;-79
2023/12/16 10:49:34;;;;;;;;;0.00;0.00;;;;;13.09;100.00;104043.44;5040470;28;75199;-78
2023/12/16 10:52:10;;;;;;;;;0.00;0.00;;;;;13.34;100.00;104047.25;5056606;28;73048;-78
2023/12/16 10:54:40;;;;;;;;;0.00;0.00;;;;;13.78;100.00;104047.72;5066720;28;46419;-79
2023/12/16 10:57:44;;;;;;;;;0.00;0.00;;;;;16.64;100.00;104038.50;5075947;28;45364;-80
2023/12/16 11:00:12;;;;;;;;;0.00;0.00;;;;;19.59;100.00;104039.69;5075858;28;46591;-80
2023/12/16 11:03:02;;;;;;;;;0.00;0.00;;;;;21.52;100.00;104029.13;5057776;28;45546;-80
2023/12/16 11:05:34;;;;;;;;;0.00;0.00;;;;;23.18;100.00;104030.91;5073313;28;45548;-80
2023/12/16 11:08:03;;;;;;;;;0.00;0.00;;;;;24.06;92.11;104022.78;5075906;28;45436;-80
2023/12/16 11:10:32;;;;;;;;;0.00;0.00;;;;;24.83;97.63;104025.41;5058745;28;46335;-81
2023/12/16 11:12:59;;;;;;;;;0.00;0.00;;;;;25.53;95.89;104031.56;5075797;28;45382;-81